Dundrennan, United Kingdom
Current Conditions -  °F | °C
As of 6:50 PM on Monday 22 Dec 2014 (Local Time) from EGPK Reporting Station
Light Rain Light Rain  
Wind Chill: 41°   Ceiling: 1800
Heat Index: 46°   Visibility: 6mi
Dew Point: 45°   Wind: 10mph
Humidity: 93%   Direction: 260°W
Pressure: 29.71"   Gusts: NA
Location:  54.8°N, 4°W
Report Text: EGPK 221850Z 26009KT 9999 -RA SCT004 BKN018 08/07 Q1006
Loading
Personal Weather Stations






























Interactive Weather Map New forecast layout! Learn more

10-Day Weather Forecast

Advertisements
Track Severe Weather on mobile